createdAt,value
2023-04-12T00:01:41.628Z,71.52
2023-04-12T00:08:01.565Z,72.15
2023-04-12T00:14:24.642Z,71.38
2023-04-12T00:20:44.597Z,71.92
2023-04-12T00:27:07.635Z,72.35
2023-04-12T00:33:27.618Z,73.45
2023-04-12T00:39:50.603Z,73.24
2023-04-12T00:46:10.590Z,74.23
2023-04-12T00:52:33.641Z,74.3
2023-04-12T00:58:53.558Z,75.45
2023-04-12T01:05:16.624Z,76.57
2023-04-12T01:11:36.593Z,76.89
2023-04-12T01:17:59.597Z,75.96
2023-04-12T01:24:19.615Z,76.6
2023-04-12T01:30:42.623Z,76.49
2023-04-12T01:37:02.595Z,77.04
2023-04-12T01:43:25.560Z,77.25
2023-04-12T01:49:45.701Z,77.76
2023-04-12T01:56:08.588Z,77.99
2023-04-12T02:02:28.686Z,79.94
2023-04-12T02:08:51.618Z,81.19
2023-04-12T02:15:11.598Z,81.7
2023-04-12T02:21:34.619Z,82.26
2023-04-12T02:27:54.627Z,83.05
2023-04-12T02:34:17.593Z,83.68
2023-04-12T02:40:37.589Z,83.43
2023-04-12T02:47:00.683Z,83.36
2023-04-12T02:53:20.595Z,83.94
2023-04-12T02:59:43.589Z,84.49
2023-04-12T03:06:03.621Z,83.94
2023-04-12T03:12:26.626Z,84.74
2023-04-12T03:18:46.615Z,85.36
2023-04-12T03:41:17.600Z,85.11
2023-04-12T03:47:40.608Z,85.42
2023-04-12T03:54:00.657Z,85.08
2023-04-12T04:00:23.633Z,85.05
2023-04-12T04:06:43.585Z,84.96
2023-04-12T04:13:06.564Z,84.77
2023-04-12T04:19:26.752Z,85.07
2023-04-12T04:25:49.645Z,84.93
2023-04-12T04:32:09.629Z,84.77
2023-04-12T04:38:32.662Z,84.85
2023-04-12T04:44:52.601Z,84.85
2023-04-12T04:51:15.594Z,84.85
2023-04-12T04:57:35.608Z,85.01
2023-04-12T05:03:58.666Z,85.4
2023-04-12T05:10:18.644Z,85.73
2023-04-12T05:16:41.636Z,85.39
2023-04-12T05:23:01.617Z,85.96
2023-04-12T05:29:24.589Z,86.04
2023-04-12T05:35:44.613Z,86.36
2023-04-12T05:42:07.662Z,86.79
2023-04-12T05:48:27.577Z,87.4
2023-04-12T05:54:50.593Z,88
2023-04-12T06:01:10.615Z,87.93
2023-04-12T06:07:33.602Z,87.71
2023-04-12T06:13:53.702Z,88.02
2023-04-12T06:20:16.623Z,88.22
2023-04-12T06:26:39.562Z,88.12
2023-04-12T06:32:59.665Z,88.38
2023-04-12T06:39:19.587Z,88.14
2023-04-12T06:45:42.656Z,88.12
2023-04-12T06:52:02.850Z,87.91
2023-04-12T06:58:25.595Z,88.12
2023-04-12T07:04:45.638Z,88.08
2023-04-12T07:11:19.940Z,87.77
2023-04-12T07:17:29.612Z,87.71
2023-04-12T07:23:52.572Z,87.78
2023-04-12T07:30:12.750Z,86.95
2023-04-12T07:36:35.570Z,87.26
2023-04-12T07:42:55.598Z,87.51
2023-04-12T07:49:18.664Z,87.42
2023-04-12T07:55:38.587Z,87.34
2023-04-12T08:02:01.671Z,87.51
2023-04-12T08:08:21.774Z,87.31
2023-04-12T08:14:44.567Z,86.68
2023-04-12T08:21:04.644Z,86.9
2023-04-12T08:27:27.603Z,87.22
2023-04-12T08:33:47.621Z,86.92
2023-04-12T08:40:10.574Z,87.03
2023-04-12T08:56:00.520Z,85.98
2023-04-12T09:02:20.779Z,86.45
2023-04-12T09:08:43.579Z,85.81
2023-04-12T09:15:03.666Z,85.84
2023-04-12T09:21:26.584Z,85.05
2023-04-12T09:27:46.614Z,84.66
2023-04-12T09:34:09.626Z,84.25
2023-04-12T09:40:29.607Z,84.54
2023-04-12T09:46:52.713Z,81.94
2023-04-12T09:53:12.720Z,82.19
2023-04-12T09:59:35.622Z,82.41
2023-04-12T10:05:55.579Z,82.51
2023-04-12T10:12:18.603Z,83.22
2023-04-12T10:18:38.595Z,82.92
2023-04-12T10:25:01.571Z,81.71
2023-04-12T10:31:21.628Z,81.82
2023-04-12T10:37:44.583Z,81.74
2023-04-12T10:44:04.636Z,81.45
2023-04-12T10:50:27.625Z,81.85
2023-04-12T10:56:47.788Z,79.29
2023-04-12T11:03:10.815Z,76.89
2023-04-12T11:09:30.610Z,75.32
2023-04-12T11:15:53.567Z,76.07
2023-04-12T11:22:13.583Z,77.69
2023-04-12T11:28:36.790Z,81.21
2023-04-12T11:34:56.809Z,83.47
2023-04-12T11:41:19.828Z,81.86
2023-04-12T11:47:39.638Z,81.42
2023-04-12T11:54:02.606Z,77.7
2023-04-12T12:00:22.584Z,77.61
2023-04-12T12:06:45.841Z,75.18
2023-04-12T12:13:05.588Z,75.25
2023-04-12T12:19:28.601Z,75.6
2023-04-12T12:25:48.796Z,75.16
2023-04-12T12:32:11.844Z,74.59
2023-04-12T12:38:32.464Z,73.65
2023-04-12T12:44:54.640Z,72.28
2023-04-12T12:51:14.618Z,70.57
2023-04-12T12:57:37.566Z,70.35
2023-04-12T13:03:57.905Z,69.28
2023-04-12T13:10:20.589Z,68.27
2023-04-12T13:16:40.671Z,67.59
2023-04-12T13:23:03.632Z,67.81
2023-04-12T13:29:24.871Z,67.32
2023-04-12T13:35:47.608Z,68.21
2023-04-12T13:42:07.657Z,65.57
2023-04-12T13:48:30.686Z,62.62
2023-04-12T13:54:50.679Z,61.2
2023-04-12T14:01:13.705Z,59.78
2023-04-12T14:25:13.581Z,57.06
2023-04-12T14:31:33.656Z,57.39
2023-04-12T14:37:56.596Z,58.17
2023-04-12T14:44:18.132Z,56.95
2023-04-12T14:50:39.573Z,57.32
2023-04-12T14:56:59.586Z,57.88
2023-04-12T15:03:22.844Z,58.49
2023-04-12T15:09:42.623Z,60.98
2023-04-12T15:16:05.687Z,61.06
2023-04-12T15:22:25.635Z,63.61
2023-04-12T15:28:48.589Z,69
2023-04-12T15:35:15.178Z,76.82
2023-04-12T15:41:31.652Z,77.44
2023-04-12T15:47:51.624Z,78.85
2023-04-12T15:54:14.615Z,82.46
2023-04-12T16:00:34.643Z,82.18
2023-04-12T16:06:57.597Z,83.3
2023-04-12T16:13:17.608Z,82.46
2023-04-12T16:19:40.778Z,81.29
2023-04-12T16:26:00.606Z,81.31
2023-04-12T16:32:23.607Z,81.23
2023-04-12T16:38:44.639Z,81.23
2023-04-12T16:45:07.609Z,76.33
2023-04-12T16:51:27.580Z,74.83
2023-04-12T16:57:50.634Z,76.44
2023-04-12T17:04:10.685Z,77.68
2023-04-12T17:10:33.655Z,74.93
2023-04-12T17:16:53.656Z,73.82
2023-04-12T17:23:16.605Z,73.12
2023-04-12T17:29:36.641Z,75.07
2023-04-12T17:35:59.684Z,75.35
2023-04-12T17:42:19.581Z,73.69
2023-04-12T17:48:42.908Z,74.68
2023-04-12T17:55:02.639Z,75.13
2023-04-12T18:01:25.626Z,75.3
2023-04-12T18:07:45.597Z,77.78
2023-04-12T18:14:08.670Z,79.18
2023-04-12T18:20:28.577Z,80.25
2023-04-12T18:26:51.594Z,81.61
2023-04-12T18:33:11.985Z,82.35
2023-04-12T18:39:34.584Z,83.42
2023-04-12T18:45:54.570Z,83.16
2023-04-12T18:52:17.604Z,83.38
2023-04-12T18:58:50.993Z,84.01
2023-04-12T19:05:00.577Z,83.79
2023-04-12T19:11:20.598Z,84.18
2023-04-12T19:28:24.664Z,83.93
2023-04-12T19:34:44.565Z,84.8
2023-04-12T19:41:07.559Z,85.23
2023-04-12T19:47:27.631Z,85.08
2023-04-12T19:53:50.933Z,84.93
2023-04-12T20:00:10.617Z,84.58
2023-04-12T20:06:33.580Z,85.21
2023-04-12T20:12:53.643Z,85.49
2023-04-12T20:19:16.616Z,85.1
2023-04-12T20:25:36.627Z,85.9
2023-04-12T20:31:59.574Z,86.12
2023-04-12T20:38:19.587Z,85.93
2023-04-12T20:44:42.631Z,86.09
2023-04-12T20:51:02.624Z,86.07
2023-04-12T20:57:25.669Z,86.17
2023-04-12T21:03:45.674Z,86.13
2023-04-12T21:10:08.759Z,80.34
2023-04-12T21:16:28.622Z,78.37
2023-04-12T21:22:51.616Z,75.61
2023-04-12T21:29:11.683Z,74.47
2023-04-12T21:35:34.568Z,74.56
2023-04-12T21:41:54.595Z,72.68
2023-04-12T21:48:17.683Z,72.68
2023-04-12T21:54:37.622Z,73.14
2023-04-12T22:20:12.593Z,78.83
2023-04-12T22:26:32.590Z,79.14
2023-04-12T22:32:55.632Z,80.25
2023-04-12T22:39:15.691Z,80.28
2023-04-12T22:45:38.585Z,81.17
2023-04-12T22:51:58.619Z,82.04
2023-04-12T22:58:21.646Z,82.27
2023-04-12T23:04:41.763Z,82.48
2023-04-12T23:11:04.642Z,81.28
2023-04-12T23:17:24.713Z,81.01
2023-04-12T23:23:47.620Z,79.61
2023-04-12T23:30:07.636Z,79.2
2023-04-12T23:36:30.647Z,78.41
2023-04-12T23:42:50.641Z,78.11
2023-04-12T23:49:13.591Z,77.1
2023-04-12T23:55:33.619Z,76.22
